createdAt,value
2023-01-19T00:00:18.167Z,68.13
2023-01-19T00:03:26.012Z,67.36
2023-01-19T00:06:14.310Z,65.34
2023-01-19T00:09:02.420Z,63.56
2023-01-19T00:11:50.844Z,62.33
2023-01-19T00:14:39.135Z,61.41
2023-01-19T00:17:27.380Z,59.98
2023-01-19T00:20:15.956Z,57.04
2023-01-19T00:23:04.947Z,56.16
2023-01-19T00:25:53.200Z,57.54
2023-01-19T00:28:41.009Z,59.02
2023-01-19T00:31:30.156Z,60.84
2023-01-19T00:34:18.177Z,64.79
2023-01-19T00:37:07.555Z,68.89
2023-01-19T00:39:55.755Z,67.18
2023-01-19T00:42:48.484Z,64.72
2023-01-19T00:45:36.794Z,63.19
2023-01-19T00:48:24.701Z,62.12
2023-01-19T00:51:12.485Z,61.21
2023-01-19T00:54:04.955Z,60.61
2023-01-19T00:56:52.719Z,60.33
2023-01-19T00:59:40.764Z,59.66
2023-01-19T01:02:28.861Z,57.04
2023-01-19T01:05:17.945Z,56.23
2023-01-19T01:08:06.207Z,57.62
2023-01-19T01:10:55.316Z,59.68
2023-01-19T01:13:43.039Z,61.52
2023-01-19T01:16:31.117Z,65.87
2023-01-19T01:19:30.945Z,68.72
2023-01-19T01:22:39.251Z,67.61
2023-01-19T01:25:28.881Z,65.75
2023-01-19T01:28:16.809Z,63.64
2023-01-19T01:31:04.907Z,62.42
2023-01-19T01:33:52.869Z,60.60
2023-01-19T01:36:40.918Z,58.14
2023-01-19T01:39:28.739Z,56.81
2023-01-19T01:42:20.143Z,58.41
2023-01-19T01:45:31.445Z,59.82
2023-01-19T01:48:27.336Z,63.92
2023-01-19T01:51:33.488Z,67.11
2023-01-19T01:54:31.892Z,65.73
2023-01-19T01:57:19.877Z,63.15
2023-01-19T02:00:09.353Z,61.70
2023-01-19T02:03:00.409Z,60.85
2023-01-19T02:05:49.342Z,59.91
2023-01-19T02:09:09.164Z,56.85
2023-01-19T02:12:15.993Z,58.67
2023-01-19T02:15:04.556Z,62.62
2023-01-19T02:17:52.632Z,65.57
2023-01-19T02:20:45.340Z,65.31
2023-01-19T02:23:49.186Z,63.04
2023-01-19T02:26:44.557Z,61.70
2023-01-19T02:29:34.060Z,60.51
2023-01-19T02:32:21.945Z,58.63
2023-01-19T02:35:11.961Z,60.23
2023-01-19T02:37:59.892Z,63.11
2023-01-19T02:40:48.853Z,65.66
2023-01-19T02:43:37.655Z,64.51
2023-01-19T02:46:25.960Z,63.16
2023-01-19T02:49:13.759Z,61.58
2023-01-19T02:52:01.854Z,60.19
2023-01-19T02:55:08.743Z,58.03
2023-01-19T02:58:34.182Z,58.04
2023-01-19T03:01:33.233Z,63.62
2023-01-19T03:04:27.644Z,64.48
2023-01-19T03:07:34.703Z,62.88
2023-01-19T03:11:02.090Z,62.18
2023-01-19T03:13:53.774Z,60.63
2023-01-19T03:16:48.850Z,60.06
2023-01-19T03:19:49.669Z,58.00
2023-01-19T03:22:37.847Z,58.10
2023-01-19T03:25:26.342Z,61.27
2023-01-19T03:28:17.965Z,64.02
2023-01-19T03:31:22.787Z,65.48
2023-01-19T03:34:15.276Z,64.25
2023-01-19T03:37:05.286Z,62.37
2023-01-19T03:39:53.472Z,60.91
2023-01-19T03:42:43.517Z,57.27
2023-01-19T03:45:34.688Z,56.42
2023-01-19T03:48:23.220Z,58.49
2023-01-19T03:51:12.103Z,60.24
2023-01-19T03:54:01.479Z,63.61
2023-01-19T03:56:49.660Z,65.78
2023-01-19T03:59:37.633Z,65.14
2023-01-19T04:02:25.383Z,63.04
2023-01-19T04:05:14.578Z,61.04
2023-01-19T04:08:02.177Z,59.68
2023-01-19T04:10:50.195Z,57.55
2023-01-19T04:13:38.474Z,58.77
2023-01-19T04:16:26.575Z,61.24
2023-01-19T04:19:14.479Z,64.43
2023-01-19T04:22:05.544Z,65.33
2023-01-19T04:24:53.573Z,63.93
2023-01-19T04:27:41.487Z,62.20
2023-01-19T04:30:29.251Z,60.38
2023-01-19T04:33:17.187Z,57.34
2023-01-19T04:36:05.693Z,55.04
2023-01-19T04:38:53.648Z,56.62
2023-01-19T04:41:41.200Z,60.77
2023-01-19T04:44:29.573Z,63.76
2023-01-19T04:47:17.705Z,65.56
2023-01-19T04:50:07.107Z,63.85
2023-01-19T04:52:55.058Z,61.13
2023-01-19T04:55:42.938Z,57.83
2023-01-19T04:58:30.944Z,55.67
2023-01-19T05:01:19.299Z,56.94
2023-01-19T05:04:07.974Z,59.09
2023-01-19T05:06:56.105Z,60.45
2023-01-19T05:09:44.103Z,63.51
2023-01-19T05:12:32.007Z,67.50
2023-01-19T05:15:20.146Z,66.49
2023-01-19T05:18:08.078Z,63.73
2023-01-19T05:20:56.120Z,63.09
2023-01-19T05:23:44.769Z,61.67
2023-01-19T05:26:32.522Z,60.38
2023-01-19T05:29:20.355Z,57.58
2023-01-19T05:32:08.380Z,56.01
2023-01-19T05:34:56.503Z,57.80
2023-01-19T05:37:44.633Z,59.39
2023-01-19T05:40:32.764Z,60.86
2023-01-19T05:43:20.476Z,65.12
2023-01-19T05:46:08.524Z,68.38
2023-01-19T05:48:58.664Z,66.77
2023-01-19T05:51:54.448Z,63.97
2023-01-19T05:54:51.150Z,61.23
2023-01-19T05:57:44.062Z,57.68
2023-01-19T06:00:31.805Z,56.66
2023-01-19T06:03:20.114Z,57.68
2023-01-19T06:06:08.167Z,59.65
2023-01-19T06:08:55.869Z,61.12
2023-01-19T06:11:45.273Z,64.66
2023-01-19T06:14:32.893Z,67.93
2023-01-19T06:17:20.839Z,67.69
2023-01-19T06:20:10.199Z,64.84
2023-01-19T06:22:58.882Z,62.97
2023-01-19T06:25:49.112Z,61.32
2023-01-19T06:28:37.057Z,59.74
2023-01-19T06:31:25.062Z,56.50
2023-01-19T06:34:12.677Z,56.54
2023-01-19T06:37:00.361Z,59.56
2023-01-19T06:39:48.031Z,60.20
2023-01-19T06:42:36.010Z,65.76
2023-01-19T06:45:24.125Z,68.40
2023-01-19T06:48:13.410Z,67.06
2023-01-19T06:51:01.353Z,64.39
2023-01-19T06:53:49.487Z,62.31
2023-01-19T06:56:37.210Z,60.39
2023-01-19T06:59:26.050Z,59.55
2023-01-19T07:02:27.690Z,57.01
2023-01-19T07:05:16.697Z,56.28
2023-01-19T07:08:04.979Z,57.85
2023-01-19T07:11:23.208Z,59.44
2023-01-19T07:14:01.585Z,63.55
2023-01-19T07:16:49.326Z,67.55
2023-01-19T07:19:37.443Z,66.27
2023-01-19T07:22:26.110Z,64.44
2023-01-19T07:25:15.420Z,62.35
2023-01-19T07:28:04.575Z,60.74
2023-01-19T07:30:54.689Z,59.91
2023-01-19T07:33:42.805Z,57.25
2023-01-19T07:36:31.039Z,56.95
2023-01-19T07:39:19.814Z,58.36
2023-01-19T07:42:07.590Z,61.30
2023-01-19T07:44:58.666Z,65.98
2023-01-19T07:47:49.879Z,66.85
2023-01-19T07:50:37.917Z,64.71
2023-01-19T07:53:25.773Z,63.32
2023-01-19T07:56:14.761Z,62.16
2023-01-19T07:59:02.636Z,60.43
2023-01-19T08:01:51.131Z,58.64
2023-01-19T08:04:41.847Z,60.59
2023-01-19T08:07:29.864Z,63.31
2023-01-19T08:10:23.034Z,63.93
2023-01-19T08:13:10.779Z,62.30
2023-01-19T08:15:58.706Z,60.76
2023-01-19T08:18:46.827Z,59.95
2023-01-19T08:21:36.486Z,59.21
2023-01-19T08:24:29.117Z,60.38
2023-01-19T08:27:17.190Z,61.66
2023-01-19T08:30:05.722Z,64.81
2023-01-19T08:32:58.383Z,64.78
2023-01-19T08:35:50.562Z,63.17
2023-01-19T08:38:41.364Z,61.37
2023-01-19T08:41:29.066Z,60.25
2023-01-19T08:44:17.168Z,57.97
2023-01-19T08:47:05.068Z,55.87
2023-01-19T08:49:53.028Z,61.40
2023-01-19T08:52:40.786Z,62.98
2023-01-19T08:55:30.303Z,61.67
2023-01-19T08:58:18.383Z,58.09
2023-01-19T09:01:08.726Z,59.27
2023-01-19T09:03:57.119Z,63.55
2023-01-19T09:06:44.818Z,63.38
2023-01-19T09:09:32.806Z,61.38
2023-01-19T09:12:20.292Z,58.30
2023-01-19T09:15:10.855Z,60.40
2023-01-19T09:17:59.169Z,60.19
2023-01-19T09:20:50.336Z,60.93
2023-01-19T09:23:38.543Z,59.49
2023-01-19T09:26:27.126Z,58.05
2023-01-19T09:29:14.663Z,56.07
2023-01-19T09:32:03.063Z,55.71
2023-01-19T09:34:51.228Z,55.54
2023-01-19T09:37:39.437Z,55.95
2023-01-19T09:40:28.593Z,55.53
2023-01-19T09:43:39.521Z,54.96
2023-01-19T09:46:40.329Z,54.07
2023-01-19T09:49:40.989Z,52.83
2023-01-19T09:52:33.123Z,50.71
2023-01-19T09:55:26.355Z,47.24
2023-01-19T09:58:19.149Z,46.39
2023-01-19T10:01:35.280Z,45.62
2023-01-19T10:05:12.397Z,43.73
2023-01-19T10:08:52.276Z,41.64
2023-01-19T10:12:08.512Z,38.88
2023-01-19T10:15:21.504Z,37.91
2023-01-19T10:18:20.200Z,35.48
2023-01-19T10:21:15.711Z,35.31
2023-01-19T10:24:27.634Z,35.30
2023-01-19T10:27:28.375Z,34.56
2023-01-19T10:30:24.697Z,33.53
2023-01-19T10:33:14.300Z,32.45
2023-01-19T10:36:28.855Z,31.80
2023-01-19T10:39:19.220Z,31.71
2023-01-19T10:42:15.398Z,29.72
2023-01-19T10:45:04.967Z,29.34
2023-01-19T10:47:54.790Z,29.43
2023-01-19T10:50:42.997Z,28.37
2023-01-19T10:53:31.311Z,27.06
2023-01-19T10:56:35.174Z,28.54
2023-01-19T10:59:46.685Z,28.48
2023-01-19T11:02:35.026Z,27.40
2023-01-19T11:05:30.510Z,26.75
2023-01-19T11:08:30.953Z,26.70
2023-01-19T11:11:24.744Z,25.66
2023-01-19T11:14:24.513Z,26.62
2023-01-19T11:17:23.472Z,25.90
2023-01-19T11:20:22.318Z,25.53
2023-01-19T11:23:23.497Z,25.99
2023-01-19T11:26:34.896Z,26.03
2023-01-19T11:29:27.433Z,25.90
2023-01-19T11:32:22.652Z,25.89
2023-01-19T11:35:40.483Z,26.11
2023-01-19T11:38:28.454Z,26.60
2023-01-19T11:41:20.738Z,26.10
2023-01-19T11:44:43.550Z,26.11
2023-01-19T11:47:39.951Z,25.24
2023-01-19T11:50:41.673Z,24.21
2023-01-19T11:53:34.488Z,24.26
2023-01-19T11:56:29.396Z,25.46
2023-01-19T11:59:18.316Z,26.01
2023-01-19T12:02:43.639Z,26.66
2023-01-19T12:05:35.333Z,28.55
2023-01-19T12:08:30.894Z,29.71
2023-01-19T12:11:31.598Z,30.30
2023-01-19T12:15:04.409Z,30.76
2023-01-19T12:17:57.891Z,31.50
2023-01-19T12:20:55.632Z,31.83
2023-01-19T12:24:16.459Z,32.03
2023-01-19T12:27:27.348Z,32.55
2023-01-19T12:30:29.190Z,33.10
2023-01-19T12:33:34.531Z,33.50
2023-01-19T12:36:35.484Z,33.95
2023-01-19T12:39:25.283Z,34.24
2023-01-19T12:42:20.471Z,34.61
2023-01-19T12:45:20.924Z,35.02
2023-01-19T12:48:25.392Z,35.37
2023-01-19T12:51:25.155Z,36.00
2023-01-19T12:54:32.603Z,36.56
2023-01-19T12:58:02.744Z,37.78
2023-01-19T13:01:16.664Z,40.04
2023-01-19T13:04:27.283Z,42.78
2023-01-19T13:07:18.116Z,45.41
2023-01-19T13:10:55.507Z,46.59
2023-01-19T13:14:05.582Z,47.33
2023-01-19T13:17:00.877Z,49.42
2023-01-19T13:19:57.501Z,52.00
2023-01-19T13:22:52.658Z,52.35
2023-01-19T13:25:47.434Z,53.88
2023-01-19T13:28:41.186Z,54.85
2023-01-19T13:31:36.187Z,55.51
2023-01-19T13:34:27.951Z,57.36
2023-01-19T13:37:37.422Z,54.53
2023-01-19T13:40:36.330Z,56.72
2023-01-19T13:43:34.803Z,55.89
2023-01-19T13:46:23.288Z,61.04
2023-01-19T13:49:29.019Z,58.47
2023-01-19T13:52:25.984Z,58.43
2023-01-19T13:55:15.791Z,59.25
2023-01-19T13:58:03.757Z,62.18
2023-01-19T14:00:51.559Z,63.50
2023-01-19T14:03:40.998Z,61.20
2023-01-19T14:06:34.202Z,57.07
2023-01-19T14:09:22.761Z,56.74
2023-01-19T14:12:17.654Z,55.73
2023-01-19T14:15:13.138Z,58.73
2023-01-19T14:18:19.460Z,60.66
2023-01-19T14:21:14.746Z,60.50
2023-01-19T14:24:20.189Z,64.35
2023-01-19T14:27:19.360Z,65.63
2023-01-19T14:30:22.169Z,61.73
2023-01-19T14:33:42.036Z,55.62
2023-01-19T14:36:38.241Z,54.82
2023-01-19T14:39:33.442Z,55.80
2023-01-19T14:42:50.684Z,57.28
2023-01-19T14:45:46.938Z,58.90
2023-01-19T14:48:35.489Z,60.56
2023-01-19T14:51:26.700Z,60.28
2023-01-19T14:54:19.465Z,63.21
2023-01-19T14:57:13.800Z,67.26
2023-01-19T15:00:11.412Z,64.74
2023-01-19T15:02:59.531Z,60.47
2023-01-19T15:05:49.171Z,56.54
2023-01-19T15:08:39.396Z,55.49
2023-01-19T15:11:34.162Z,56.82
2023-01-19T15:14:22.433Z,58.30
2023-01-19T15:17:27.494Z,60.64
2023-01-19T15:20:20.731Z,63.98
2023-01-19T15:23:11.666Z,63.29
2023-01-19T15:26:03.216Z,61.29
2023-01-19T15:28:51.529Z,56.75
2023-01-19T15:31:39.499Z,56.55
2023-01-19T15:34:27.688Z,58.77
2023-01-19T15:37:16.037Z,61.17
2023-01-19T15:40:04.444Z,63.18
2023-01-19T15:42:55.004Z,66.29
2023-01-19T15:46:16.453Z,64.20
2023-01-19T15:49:11.874Z,59.79
2023-01-19T15:52:02.682Z,56.47
2023-01-19T15:54:50.673Z,58.52
2023-01-19T15:57:38.546Z,60.86
2023-01-19T16:00:26.407Z,64.68
2023-01-19T16:03:14.372Z,65.82
2023-01-19T16:06:02.469Z,62.64
2023-01-19T16:08:50.370Z,58.81
2023-01-19T16:11:38.434Z,56.77
2023-01-19T16:14:26.437Z,60.25
2023-01-19T16:17:14.450Z,61.52
2023-01-19T16:20:05.093Z,66.71
2023-01-19T16:22:54.995Z,67.66
2023-01-19T16:25:45.245Z,64.62
2023-01-19T16:28:35.690Z,61.90
2023-01-19T16:31:23.902Z,60.20
2023-01-19T16:34:12.028Z,57.47
2023-01-19T16:37:00.377Z,58.19
2023-01-19T16:39:50.950Z,60.10
2023-01-19T16:42:40.881Z,63.07
2023-01-19T16:45:28.877Z,68.23
2023-01-19T16:48:21.363Z,66.45
2023-01-19T16:51:09.258Z,64.14
2023-01-19T16:53:57.508Z,62.42
2023-01-19T16:56:46.290Z,60.87
2023-01-19T16:59:34.381Z,58.66
2023-01-19T17:02:22.014Z,58.89
2023-01-19T17:05:10.543Z,62.09
2023-01-19T17:07:58.183Z,66.38
2023-01-19T17:10:48.204Z,66.33
2023-01-19T17:13:36.036Z,64.21
2023-01-19T17:16:25.312Z,61.22
2023-01-19T17:19:17.709Z,60.38
2023-01-19T17:22:06.595Z,59.58
2023-01-19T17:24:54.807Z,57.16
2023-01-19T17:27:42.837Z,58.91
2023-01-19T17:30:31.290Z,60.51
2023-01-19T17:33:23.885Z,64.82
2023-01-19T17:36:16.186Z,67.73
2023-01-19T17:39:11.598Z,63.91
2023-01-19T17:41:59.599Z,60.89
2023-01-19T17:44:47.576Z,60.69
2023-01-19T17:47:35.599Z,60.13
2023-01-19T17:50:23.617Z,58.50
2023-01-19T17:53:11.939Z,59.74
2023-01-19T17:56:30.327Z,60.15
2023-01-19T17:59:18.755Z,66.09
2023-01-19T18:02:08.639Z,67.34
2023-01-19T18:04:58.582Z,65.58
2023-01-19T18:07:47.966Z,63.28
2023-01-19T18:10:35.860Z,62.14
2023-01-19T18:13:24.447Z,60.88
2023-01-19T18:16:16.838Z,60.68
2023-01-19T18:19:05.046Z,58.84
2023-01-19T18:21:53.214Z,58.52
2023-01-19T18:24:41.054Z,60.09
2023-01-19T18:27:29.433Z,61.17
2023-01-19T18:30:18.384Z,65.48
2023-01-19T18:33:06.726Z,66.78
2023-01-19T18:35:55.177Z,66.06
2023-01-19T18:38:43.617Z,63.78
2023-01-19T18:41:31.880Z,62.22
2023-01-19T18:44:19.568Z,60.81
2023-01-19T18:47:07.640Z,57.08
2023-01-19T18:49:55.594Z,56.38
2023-01-19T18:52:47.855Z,58.57
2023-01-19T18:55:36.753Z,64.76
2023-01-19T18:58:28.639Z,66.64
2023-01-19T19:01:33.106Z,64.19
2023-01-19T19:04:21.342Z,62.42
2023-01-19T19:07:09.800Z,60.07
2023-01-19T19:09:57.536Z,57.45
2023-01-19T19:12:45.621Z,58.35
2023-01-19T19:15:34.395Z,59.67
2023-01-19T19:18:22.844Z,63.50
2023-01-19T19:21:12.710Z,67.50
2023-01-19T19:24:00.671Z,65.51
2023-01-19T19:26:48.985Z,63.06
2023-01-19T19:29:36.591Z,61.97
2023-01-19T19:32:24.681Z,60.87
2023-01-19T19:35:12.696Z,58.48
2023-01-19T19:38:00.890Z,56.80
2023-01-19T19:40:48.780Z,58.83
2023-01-19T19:43:37.864Z,60.83
2023-01-19T19:46:28.024Z,65.98
2023-01-19T19:49:21.382Z,67.53
2023-01-19T19:52:09.085Z,64.75
2023-01-19T19:54:57.218Z,62.67
2023-01-19T19:57:45.665Z,61.34
2023-01-19T20:00:33.561Z,59.65
2023-01-19T20:03:21.882Z,57.00
2023-01-19T20:06:14.045Z,57.42
2023-01-19T20:09:02.150Z,60.15
2023-01-19T20:11:50.234Z,62.85
2023-01-19T20:14:38.670Z,65.38
2023-01-19T20:17:36.140Z,66.04
2023-01-19T20:20:24.999Z,63.88
2023-01-19T20:23:13.022Z,63.82
2023-01-19T20:26:06.269Z,60.08
2023-01-19T20:28:59.793Z,58.71
2023-01-19T20:31:53.858Z,58.86
2023-01-19T20:34:42.023Z,61.18
2023-01-19T20:37:30.255Z,64.97
2023-01-19T20:40:18.504Z,66.51
2023-01-19T20:43:07.826Z,64.66
2023-01-19T20:45:56.320Z,62.10
2023-01-19T20:48:45.885Z,62.60
2023-01-19T20:51:35.662Z,59.51
2023-01-19T20:54:27.467Z,59.31
2023-01-19T20:57:15.413Z,59.40
2023-01-19T21:00:03.799Z,61.70
2023-01-19T21:02:51.988Z,65.80
2023-01-19T21:05:40.040Z,67.62
2023-01-19T21:08:27.727Z,66.37
2023-01-19T21:11:21.232Z,65.87
2023-01-19T21:14:09.501Z,62.38
2023-01-19T21:16:58.550Z,62.78
2023-01-19T21:19:46.497Z,59.96
2023-01-19T21:22:34.613Z,57.97
2023-01-19T21:25:22.946Z,59.05
2023-01-19T21:28:10.912Z,64.33
2023-01-19T21:31:07.369Z,64.08
2023-01-19T21:33:56.241Z,65.64
2023-01-19T21:36:44.794Z,61.44
2023-01-19T21:39:32.512Z,59.99
2023-01-19T21:42:20.713Z,58.80
2023-01-19T21:45:09.065Z,62.73
2023-01-19T21:47:57.132Z,63.84
2023-01-19T21:50:45.727Z,60.31
2023-01-19T21:53:33.690Z,60.10
2023-01-19T21:56:22.596Z,58.22
2023-01-19T21:59:16.032Z,58.30
2023-01-19T22:02:04.631Z,60.11
2023-01-19T22:04:52.815Z,62.94
2023-01-19T22:07:40.830Z,65.73
2023-01-19T22:10:28.753Z,62.00
2023-01-19T22:13:16.470Z,60.44
2023-01-19T22:16:08.962Z,58.87
2023-01-19T22:19:02.382Z,58.66
2023-01-19T22:21:50.921Z,60.97
2023-01-19T22:24:39.423Z,64.64
2023-01-19T22:27:28.609Z,66.27
2023-01-19T22:30:17.880Z,64.31
2023-01-19T22:33:05.638Z,61.87
2023-01-19T22:35:53.787Z,58.82
2023-01-19T22:38:42.639Z,60.03
2023-01-19T22:41:35.855Z,62.31
2023-01-19T22:44:23.838Z,64.62
2023-01-19T22:47:12.181Z,63.10
2023-01-19T22:49:59.934Z,61.68
2023-01-19T22:52:47.540Z,61.94
2023-01-19T22:55:35.911Z,57.97
2023-01-19T22:58:23.861Z,58.17
2023-01-19T23:01:15.651Z,60.60
2023-01-19T23:04:04.709Z,63.33
2023-01-19T23:06:52.613Z,65.38
2023-01-19T23:09:40.329Z,64.07
2023-01-19T23:12:28.370Z,62.09
2023-01-19T23:15:16.283Z,60.96
2023-01-19T23:18:04.343Z,58.11
2023-01-19T23:20:52.516Z,56.66
2023-01-19T23:23:41.195Z,59.13
2023-01-19T23:26:38.320Z,59.00
2023-01-19T23:29:26.322Z,64.64
2023-01-19T23:32:14.604Z,66.60
2023-01-19T23:35:02.596Z,64.63
2023-01-19T23:37:50.812Z,62.12
2023-01-19T23:40:38.696Z,61.65
2023-01-19T23:43:26.907Z,60.74
2023-01-19T23:46:16.933Z,57.60
2023-01-19T23:49:05.122Z,56.33
2023-01-19T23:51:52.923Z,58.65
2023-01-19T23:54:40.894Z,61.58
2023-01-19T23:57:28.935Z,65.16
